KBMG/BMG METAR and TAF weather

Enter ICAO airport designator
Station Type Date Time Source
KBMG METAR 2022/11/27 08:53 UTC NOAA

KBMG 270853Z AUTO 15011KT 7SM OVC005 11/10 A2952 RMK AO2 RAE50 SLP994 P0009 60022 T01060100 56052


Station Type Date Time Source
KBMG Decoded METAR 2022/11/27 08:53 UTC NOAA

MONROE COUNTY AIRPORT, IN, United States (KBMG) 39-09N 086-37W 257M
Nov 27, 2022 - 03:53 AM EST / 2022.11.27 0853 UTC
Wind: from the SSE (150 degrees) at 13 MPH (11 KT):0
Visibility: 7 mile(s):0
Sky conditions: overcast
Precipitation last hour: 0.09 inches
Temperature: 51.1 F (10.6 C)
Dew Point: 50.0 F (10.0 C)
Relative Humidity: 96%
Pressure (altimeter): 29.52 in. Hg (999 hPa)
Pressure tendency: 0.15 inches (5.2 hPa) lower than three hours ago
ob: KBMG 270853Z AUTO 15011KT 7SM OVC005 11/10 A2952 RMK AO2 RAE50 SLP994 P0009 60022 T01060100 56052
cycle: 9

Station Type Date Time Source
KBMG TAF 2022/11/27 06:42 UTC NOAA

TAF KBMG 270538Z 2706/2806 12007KT 4SM SHRA BR OVC012
FM270800 12007KT 4SM SHRA BR OVC012 WS020/19035KT
FM271000 14011G20KT 3SM SHRA BR OVC006 WS020/19035KT
FM271300 18010G23KT 6SM -SHRA BR OVC015
FM271600 22012G27KT 6SM -SHRA BR OVC008
FM272000 25016G26KT 5SM -SHRA BR OVC005
FM272100 28014G23KT P6SM VCSH OVC006
AMD LTD TO CLD VIS AND WIND TIL 271400

Example: see airport list